createdAt,value
2024-02-17T00:00:45.951Z,8.30
2024-02-17T00:03:18.765Z,8.80
2024-02-17T00:05:45.845Z,7.90
2024-02-17T00:08:12.675Z,7.10
2024-02-17T00:10:39.516Z,8.55
2024-02-17T00:13:06.350Z,7.80
2024-02-17T00:15:33.237Z,8.32
2024-02-17T00:18:03.537Z,7.43
2024-02-17T00:20:30.747Z,7.72
2024-02-17T00:22:57.726Z,8.00
2024-02-17T00:25:24.553Z,8.50
2024-02-17T00:27:51.415Z,7.50
2024-02-17T00:30:19.709Z,8.35
2024-02-17T00:32:46.601Z,7.80
2024-02-17T00:35:13.642Z,7.50
2024-02-17T00:37:40.544Z,7.78
2024-02-17T00:40:08.139Z,7.20
2024-02-17T00:42:34.998Z,7.90
2024-02-17T00:45:01.976Z,7.10
2024-02-17T00:47:28.948Z,7.15
2024-02-17T00:49:55.897Z,7.38
2024-02-17T00:52:22.854Z,7.22
2024-02-17T00:54:49.742Z,7.43
2024-02-17T00:57:17.249Z,7.47
2024-02-17T00:59:44.182Z,7.05
2024-02-17T01:02:11.259Z,6.43
2024-02-17T01:04:38.331Z,7.38
2024-02-17T01:07:05.436Z,6.45
2024-02-17T01:09:32.354Z,6.53
2024-02-17T01:11:59.544Z,7.55
2024-02-17T01:14:26.456Z,6.90
2024-02-17T01:16:53.353Z,7.18
2024-02-17T01:19:20.397Z,7.15
2024-02-17T01:21:47.785Z,6.63
2024-02-17T01:24:14.836Z,7.00
2024-02-17T01:26:41.709Z,7.15
2024-02-17T01:29:08.565Z,6.93
2024-02-17T01:31:35.454Z,6.93
2024-02-17T01:34:02.333Z,6.97
2024-02-17T01:36:29.193Z,7.28
2024-02-17T01:38:56.145Z,7.10
2024-02-17T01:41:22.991Z,7.38
2024-02-17T01:43:49.886Z,7.22
2024-02-17T01:46:16.772Z,7.43
2024-02-17T01:48:43.994Z,7.22
2024-02-17T01:51:12.902Z,7.43
2024-02-17T01:53:42.743Z,7.18
2024-02-17T01:56:11.482Z,7.07
2024-02-17T01:58:38.868Z,7.60
2024-02-17T02:01:06.497Z,6.95
2024-02-17T02:03:34.056Z,7.32
2024-02-17T02:06:01.269Z,6.90
2024-02-17T02:08:28.285Z,7.68
2024-02-17T02:10:57.092Z,8.05
2024-02-17T02:13:24.226Z,8.00
2024-02-17T02:15:54.465Z,7.93
2024-02-17T02:18:23.376Z,8.32
2024-02-17T02:20:50.860Z,8.07
2024-02-17T02:23:18.244Z,8.55
2024-02-17T02:25:57.416Z,9.00
2024-02-17T02:28:24.933Z,7.78
2024-02-17T02:30:53.381Z,8.05
2024-02-17T02:33:20.560Z,8.52
2024-02-17T02:35:47.593Z,8.88
2024-02-17T02:38:14.582Z,8.68
2024-02-17T02:40:41.493Z,8.80
2024-02-17T02:43:08.642Z,9.60
2024-02-17T02:45:35.668Z,9.63
2024-02-17T02:48:02.745Z,9.60
2024-02-17T02:50:29.887Z,9.43
2024-02-17T02:52:58.969Z,9.70
2024-02-17T02:55:25.912Z,9.63
2024-02-17T02:57:52.908Z,9.75
2024-02-17T03:00:20.112Z,9.05
2024-02-17T03:02:47.189Z,9.18
2024-02-17T03:05:14.121Z,9.50
2024-02-17T03:07:40.975Z,8.93
2024-02-17T03:10:08.359Z,8.95
2024-02-17T03:12:35.472Z,9.05
2024-02-17T03:15:05.481Z,8.55
2024-02-17T03:17:32.739Z,8.10
2024-02-17T03:19:59.743Z,8.82
2024-02-17T03:22:27.792Z,8.00
2024-02-17T03:24:54.819Z,7.30
2024-02-17T03:27:21.908Z,6.75
2024-02-17T03:29:48.880Z,6.70
2024-02-17T03:32:15.804Z,6.55
2024-02-17T03:34:43.834Z,6.43
2024-02-17T03:37:10.963Z,6.15
2024-02-17T03:39:38.289Z,6.30
2024-02-17T03:42:05.413Z,6.15
2024-02-17T03:44:32.303Z,5.97
2024-02-17T03:46:59.195Z,6.07
2024-02-17T03:49:26.267Z,6.25
2024-02-17T03:51:53.246Z,6.47
2024-02-17T03:54:20.229Z,5.85
2024-02-17T03:56:47.086Z,6.50
2024-02-17T03:59:13.976Z,6.53
2024-02-17T04:01:41.125Z,6.82
2024-02-17T04:04:08.201Z,7.20
2024-02-17T04:06:35.388Z,6.38
2024-02-17T04:09:02.519Z,6.88
2024-02-17T04:11:29.421Z,6.97
2024-02-17T04:13:59.276Z,6.45
2024-02-17T04:16:26.184Z,6.25
2024-02-17T04:18:53.184Z,7.07
2024-02-17T04:21:20.203Z,6.85
2024-02-17T04:23:47.114Z,6.50
2024-02-17T04:26:14.517Z,6.78
2024-02-17T04:28:44.642Z,6.78
2024-02-17T04:31:11.510Z,6.72
2024-02-17T04:33:38.941Z,7.30
2024-02-17T04:36:07.286Z,6.93
2024-02-17T04:38:35.143Z,6.25
2024-02-17T04:41:03.124Z,6.65
2024-02-17T04:43:30.074Z,6.60
2024-02-17T04:45:57.020Z,6.25
2024-02-17T04:48:23.989Z,6.95
2024-02-17T04:50:50.973Z,6.50
2024-02-17T04:53:17.975Z,6.65
2024-02-17T04:55:44.790Z,6.40
2024-02-17T04:58:18.263Z,5.88
2024-02-17T05:00:49.358Z,6.80
2024-02-17T05:03:17.004Z,6.60
2024-02-17T05:05:44.650Z,6.38
2024-02-17T05:08:11.775Z,7.00
2024-02-17T05:10:40.060Z,7.00
2024-02-17T05:13:07.133Z,6.88
2024-02-17T05:15:35.632Z,6.93
2024-02-17T05:18:04.249Z,6.95
2024-02-17T05:20:31.581Z,6.68
2024-02-17T05:22:58.737Z,7.10
2024-02-17T05:25:25.581Z,6.95
2024-02-17T05:27:52.541Z,6.70
2024-02-17T05:30:19.575Z,7.07
2024-02-17T05:32:47.223Z,6.50
2024-02-17T05:35:14.317Z,6.47
2024-02-17T05:37:41.349Z,7.30
2024-02-17T05:40:09.087Z,6.65
2024-02-17T05:42:36.593Z,7.35
2024-02-17T05:45:04.393Z,7.40
2024-02-17T05:47:31.503Z,7.28
2024-02-17T05:50:00.063Z,7.13
2024-02-17T05:52:26.908Z,7.30
2024-02-17T05:54:53.836Z,6.80
2024-02-17T05:57:20.876Z,7.10
2024-02-17T05:59:47.783Z,7.60
2024-02-17T06:02:14.596Z,7.38
2024-02-17T06:04:41.744Z,7.32
2024-02-17T06:07:08.682Z,7.13
2024-02-17T06:09:35.686Z,6.53
2024-02-17T06:12:02.716Z,7.03
2024-02-17T06:14:29.734Z,7.53
2024-02-17T06:16:57.472Z,6.93
2024-02-17T06:19:43.009Z,7.35
2024-02-17T06:22:09.908Z,7.20
2024-02-17T06:24:36.793Z,7.40
2024-02-17T06:27:03.911Z,7.28
2024-02-17T06:29:31.047Z,7.68
2024-02-17T06:31:57.977Z,7.95
2024-02-17T06:34:24.924Z,8.05
2024-02-17T06:36:51.878Z,7.75
2024-02-17T06:39:18.981Z,8.15
2024-02-17T06:41:45.888Z,8.35
2024-02-17T06:44:12.758Z,7.55
2024-02-17T06:46:45.549Z,7.75
2024-02-17T06:49:12.462Z,7.78
2024-02-17T06:51:39.372Z,8.30
2024-02-17T06:54:06.240Z,7.72
2024-02-17T06:56:34.862Z,7.53
2024-02-17T06:59:01.715Z,8.00
2024-02-17T07:01:28.739Z,8.00
2024-02-17T07:03:55.740Z,8.55
2024-02-17T07:06:22.888Z,7.82
2024-02-17T07:08:50.149Z,8.02
2024-02-17T07:11:17.203Z,8.68
2024-02-17T07:13:44.676Z,8.18
2024-02-17T07:16:12.411Z,8.20
2024-02-17T07:18:40.455Z,8.18
2024-02-17T07:21:07.529Z,8.13
2024-02-17T07:23:34.633Z,8.82
2024-02-17T07:26:02.147Z,9.00
2024-02-17T07:28:28.946Z,9.20
2024-02-17T07:30:56.923Z,8.68
2024-02-17T07:33:25.729Z,9.25
2024-02-17T07:35:52.888Z,9.40
2024-02-17T07:38:19.791Z,9.40
2024-02-17T07:40:46.764Z,9.50
2024-02-17T07:43:13.786Z,9.45
2024-02-17T07:45:40.772Z,9.82
2024-02-17T07:48:07.834Z,9.20
2024-02-17T07:50:35.133Z,9.48
2024-02-17T07:53:02.027Z,9.55
2024-02-17T07:55:28.867Z,9.65
2024-02-17T07:57:55.793Z,9.93
2024-02-17T08:00:22.850Z,10.15
2024-02-17T08:02:52.263Z,10.65
2024-02-17T08:05:19.660Z,10.10
2024-02-17T08:07:46.699Z,10.13
2024-02-17T08:10:15.286Z,10.48
2024-02-17T08:12:44.400Z,11.00
2024-02-17T08:15:11.516Z,10.48
2024-02-17T08:17:41.606Z,10.30
2024-02-17T08:20:09.146Z,10.95
2024-02-17T08:22:36.122Z,11.27
2024-02-17T08:25:06.697Z,11.05
2024-02-17T08:27:37.328Z,10.85
2024-02-17T08:30:05.528Z,11.45
2024-02-17T08:32:33.939Z,10.40
2024-02-17T08:35:02.171Z,11.43
2024-02-17T08:37:30.343Z,10.60
2024-02-17T08:39:57.457Z,10.70
2024-02-17T08:42:24.430Z,10.82
2024-02-17T08:44:54.869Z,10.80
2024-02-17T08:47:22.699Z,11.50
2024-02-17T08:49:52.619Z,11.10
2024-02-17T08:52:19.864Z,11.45
2024-02-17T08:54:47.459Z,12.20
2024-02-17T08:57:14.445Z,12.10
2024-02-17T08:59:41.333Z,12.32
2024-02-17T09:02:08.170Z,11.63
2024-02-17T09:04:35.174Z,12.30
2024-02-17T09:07:02.485Z,12.15
2024-02-17T09:09:29.809Z,12.00
2024-02-17T09:11:56.826Z,11.55
2024-02-17T09:14:23.877Z,11.57
2024-02-17T09:16:50.818Z,11.60
2024-02-17T09:19:17.780Z,11.90
2024-02-17T09:21:44.730Z,11.82
2024-02-17T09:24:12.044Z,12.60
2024-02-17T09:26:39.325Z,11.95
2024-02-17T09:29:06.211Z,12.07
2024-02-17T09:31:35.104Z,11.70
2024-02-17T09:34:03.025Z,12.20
2024-02-17T09:36:30.505Z,11.52
2024-02-17T09:38:57.484Z,12.07
2024-02-17T09:41:24.443Z,11.98
2024-02-17T09:43:51.586Z,12.27
2024-02-17T09:46:18.995Z,12.88
2024-02-17T09:48:46.205Z,13.55
2024-02-17T09:51:13.357Z,12.43
2024-02-17T09:53:41.390Z,11.85
2024-02-17T09:56:08.286Z,12.77
2024-02-17T09:58:35.290Z,12.38
2024-02-17T10:01:03.294Z,12.90
2024-02-17T10:03:31.598Z,12.13
2024-02-17T10:06:14.038Z,12.45
2024-02-17T10:08:42.004Z,11.85
2024-02-17T10:11:12.525Z,11.43
2024-02-17T10:13:41.022Z,12.30
2024-02-17T10:16:17.556Z,12.52
2024-02-17T10:18:46.178Z,11.75
2024-02-17T10:21:13.789Z,12.50
2024-02-17T10:23:40.934Z,12.55
2024-02-17T10:26:08.214Z,12.35
2024-02-17T10:28:35.428Z,12.18
2024-02-17T10:31:05.380Z,11.80
2024-02-17T10:33:33.436Z,11.25
2024-02-17T10:36:02.041Z,11.02
2024-02-17T10:38:30.764Z,10.95
2024-02-17T10:40:57.695Z,11.20
2024-02-17T10:43:24.593Z,11.63
2024-02-17T10:45:55.780Z,12.10
2024-02-17T10:48:26.143Z,12.23
2024-02-17T10:50:54.342Z,12.13
2024-02-17T10:53:42.879Z,12.65
2024-02-17T10:56:16.873Z,12.18
2024-02-17T10:58:47.853Z,11.43
2024-02-17T11:01:18.229Z,11.98
2024-02-17T11:03:47.261Z,11.57
2024-02-17T11:06:18.844Z,10.90
2024-02-17T11:08:45.952Z,9.80
2024-02-17T11:11:33.075Z,11.52
2024-02-17T11:14:00.726Z,10.27
2024-02-17T11:16:36.284Z,10.05
2024-02-17T11:19:09.911Z,10.80
2024-02-17T11:21:39.971Z,9.65
2024-02-17T11:24:12.947Z,9.40
2024-02-17T11:26:44.982Z,10.47
2024-02-17T11:29:29.755Z,10.90
2024-02-17T11:31:59.822Z,10.90
2024-02-17T11:34:28.438Z,11.07
2024-02-17T11:36:59.535Z,11.38
2024-02-17T11:39:27.531Z,11.00
2024-02-17T11:41:54.644Z,11.48
2024-02-17T11:44:21.838Z,11.23
2024-02-17T11:46:49.437Z,10.73
2024-02-17T11:49:24.882Z,10.90
2024-02-17T11:51:52.385Z,10.80
2024-02-17T11:54:20.923Z,9.93
2024-02-17T11:56:49.450Z,10.00
2024-02-17T11:59:17.937Z,9.50
2024-02-17T12:01:44.843Z,8.90
2024-02-17T12:04:11.886Z,8.70
2024-02-17T12:06:38.934Z,8.50
2024-02-17T12:09:05.874Z,8.95
2024-02-17T12:11:33.297Z,8.10
2024-02-17T12:14:00.916Z,8.48
2024-02-17T12:16:28.335Z,8.00
2024-02-17T12:18:55.577Z,9.07
2024-02-17T12:21:24.001Z,8.45
2024-02-17T12:23:51.601Z,8.32
2024-02-17T12:26:28.018Z,7.43
2024-02-17T12:29:06.477Z,7.75
2024-02-17T12:31:34.613Z,7.75
2024-02-17T12:34:01.870Z,8.73
2024-02-17T12:36:29.163Z,7.85
2024-02-17T12:39:00.837Z,9.13
2024-02-17T12:41:28.437Z,8.65
2024-02-17T12:43:58.189Z,9.00
2024-02-17T12:46:30.379Z,8.75
2024-02-17T12:48:58.959Z,9.00
2024-02-17T12:51:29.491Z,9.35
2024-02-17T12:53:56.903Z,9.20
2024-02-17T12:56:25.681Z,8.10
2024-02-17T12:58:53.158Z,8.27
2024-02-17T13:01:20.785Z,7.45
2024-02-17T13:03:48.482Z,7.40
2024-02-17T13:06:16.505Z,7.80
2024-02-17T13:08:44.020Z,6.97
2024-02-17T13:11:11.333Z,7.10
2024-02-17T13:13:38.837Z,6.70
2024-02-17T13:16:06.216Z,5.70
2024-02-17T13:18:34.541Z,5.38
2024-02-17T13:21:02.030Z,4.95
2024-02-17T13:23:28.873Z,5.55
2024-02-17T13:25:55.767Z,4.30
2024-02-17T13:28:22.906Z,4.30
2024-02-17T13:30:49.799Z,3.92
2024-02-17T13:33:17.914Z,3.72
2024-02-17T13:35:45.226Z,4.38
2024-02-17T13:38:18.980Z,3.70
2024-02-17T13:40:52.918Z,3.00
2024-02-17T13:43:21.062Z,3.20
2024-02-17T13:45:52.170Z,2.67
2024-02-17T13:48:19.819Z,2.65
2024-02-17T13:50:48.721Z,3.40
2024-02-17T13:53:16.379Z,3.00
2024-02-17T13:55:44.512Z,2.92
2024-02-17T13:58:20.872Z,2.70
2024-02-17T14:00:49.637Z,2.08
2024-02-17T14:03:27.484Z,1.63
2024-02-17T14:06:07.910Z,2.13
2024-02-17T14:08:35.070Z,2.10
2024-02-17T14:11:17.400Z,2.25
2024-02-17T14:13:49.391Z,2.00
2024-02-17T14:16:17.105Z,2.25
2024-02-17T14:18:45.053Z,2.13
2024-02-17T14:21:12.431Z,1.80
2024-02-17T14:23:40.167Z,1.58
2024-02-17T14:26:26.755Z,1.95
2024-02-17T14:28:57.082Z,2.35
2024-02-17T14:31:26.165Z,1.80
2024-02-17T14:33:54.189Z,2.25
2024-02-17T14:36:29.896Z,1.30
2024-02-17T14:39:00.442Z,1.55
2024-02-17T14:41:28.085Z,1.42
2024-02-17T14:43:57.348Z,1.30
2024-02-17T14:46:31.424Z,1.20
2024-02-17T14:49:08.014Z,1.38
2024-02-17T14:51:42.788Z,1.45
2024-02-17T14:54:16.406Z,1.95
2024-02-17T14:56:43.442Z,1.70
2024-02-17T14:59:13.483Z,1.50
2024-02-17T15:01:40.431Z,1.85
2024-02-17T15:04:07.515Z,2.50
2024-02-17T15:06:34.452Z,2.38
2024-02-17T15:09:02.787Z,2.10
2024-02-17T15:11:29.705Z,2.30
2024-02-17T15:13:56.565Z,2.20
2024-02-17T15:16:23.452Z,2.22
2024-02-17T15:18:50.796Z,2.10
2024-02-17T15:21:17.778Z,2.45
2024-02-17T15:23:47.898Z,2.60
2024-02-17T15:26:16.098Z,2.38
2024-02-17T15:28:43.430Z,2.45
2024-02-17T15:31:10.534Z,3.25
2024-02-17T15:33:37.631Z,2.85
2024-02-17T15:36:05.932Z,2.90
2024-02-17T15:38:33.099Z,2.50
2024-02-17T15:41:01.058Z,2.10
2024-02-17T15:43:28.621Z,2.38
2024-02-17T15:45:55.675Z,2.40
2024-02-17T15:48:27.298Z,2.60
2024-02-17T15:50:57.867Z,2.30
2024-02-17T15:53:28.831Z,2.22
2024-02-17T15:55:58.302Z,2.30
2024-02-17T15:58:27.910Z,2.40
2024-02-17T16:00:57.967Z,2.25
2024-02-17T16:03:30.294Z,2.30
2024-02-17T16:06:02.094Z,2.30
2024-02-17T16:08:29.240Z,2.08
2024-02-17T16:10:56.266Z,2.58
2024-02-17T16:13:23.133Z,2.28
2024-02-17T16:15:50.155Z,2.17
2024-02-17T16:18:17.101Z,2.65
2024-02-17T16:20:44.063Z,2.22
2024-02-17T16:23:11.169Z,2.65
2024-02-17T16:25:40.056Z,2.55
2024-02-17T16:28:06.978Z,2.33
2024-02-17T16:30:34.025Z,3.28
2024-02-17T16:33:00.999Z,2.80
2024-02-17T16:35:28.238Z,2.80
2024-02-17T16:37:55.961Z,3.47
2024-02-17T16:40:23.312Z,2.80
2024-02-17T16:42:50.326Z,3.88
2024-02-17T16:45:17.606Z,3.60
2024-02-17T16:47:48.437Z,3.40
2024-02-17T16:50:15.433Z,3.88
2024-02-17T16:52:42.597Z,4.00
2024-02-17T16:55:10.192Z,3.83
2024-02-17T16:57:37.365Z,3.67
2024-02-17T17:00:04.696Z,3.92
2024-02-17T17:02:31.656Z,5.63
2024-02-17T17:04:59.486Z,6.18
2024-02-17T17:07:26.709Z,4.85
2024-02-17T17:09:53.821Z,47.83
2024-02-17T17:12:20.901Z,371.47
2024-02-17T17:14:48.432Z,236.27
2024-02-17T17:17:15.489Z,243.23
2024-02-17T17:19:42.740Z,154.55
2024-02-17T17:22:10.067Z,82.85
2024-02-17T17:24:37.146Z,40.53
2024-02-17T17:27:04.372Z,28.00
2024-02-17T17:29:35.545Z,47.88
2024-02-17T17:32:05.601Z,47.83
2024-02-17T17:34:32.743Z,41.83
2024-02-17T17:36:59.766Z,48.65
2024-02-17T17:39:26.949Z,37.88
2024-02-17T17:41:53.866Z,333.25
2024-02-17T17:44:21.123Z,265.83
2024-02-17T17:46:51.421Z,31.95
2024-02-17T17:49:18.510Z,58.00
2024-02-17T17:51:47.560Z,282.70
2024-02-17T17:54:17.646Z,39.28
2024-02-17T18:02:21.686Z,14.27
2024-02-17T18:04:48.740Z,24.55
2024-02-17T18:07:16.154Z,26.45
2024-02-17T18:23:22.218Z,13.23
2024-02-17T18:25:49.633Z,14.50
2024-02-17T18:28:16.644Z,11.60
2024-02-17T18:30:47.889Z,11.20
2024-02-17T18:33:15.694Z,11.70
2024-02-17T18:35:45.510Z,11.57
2024-02-17T18:38:12.381Z,11.90
2024-02-17T18:40:40.913Z,14.25
2024-02-17T18:43:07.890Z,14.38
2024-02-17T18:45:34.824Z,13.40
2024-02-17T18:48:01.946Z,10.40
2024-02-17T18:50:28.895Z,10.80
2024-02-17T18:52:55.771Z,12.75
2024-02-17T18:55:22.769Z,12.45
2024-02-17T18:57:49.707Z,13.00
2024-02-17T19:00:17.276Z,12.48
2024-02-17T19:02:44.368Z,12.30
2024-02-17T19:05:12.088Z,12.55
2024-02-17T19:07:40.519Z,12.23
2024-02-17T19:10:09.630Z,12.82
2024-02-17T19:12:36.521Z,13.25
2024-02-17T19:15:04.137Z,14.75
2024-02-17T19:17:31.152Z,14.52
2024-02-17T19:19:58.115Z,12.32
2024-02-17T19:22:25.076Z,12.85
2024-02-17T19:24:53.529Z,13.07
2024-02-17T19:27:20.640Z,12.77
2024-02-17T19:29:47.734Z,43.78
2024-02-17T19:32:14.658Z,38.35
2024-02-17T19:34:41.801Z,15.57
2024-02-17T19:37:08.945Z,13.38
2024-02-17T19:39:36.200Z,13.77
2024-02-17T19:42:04.851Z,13.80
2024-02-17T19:44:32.469Z,13.98
2024-02-17T19:47:01.615Z,14.13
2024-02-17T19:49:29.709Z,16.55
2024-02-17T19:51:57.228Z,13.98
2024-02-17T19:54:24.363Z,13.43
2024-02-17T19:56:54.272Z,13.68
2024-02-17T19:59:21.269Z,13.68
2024-02-17T20:01:48.130Z,13.40
2024-02-17T20:04:15.194Z,14.27
2024-02-17T20:06:42.678Z,13.88
2024-02-17T20:09:10.266Z,15.55
2024-02-17T20:11:37.542Z,15.93
2024-02-17T20:14:09.928Z,15.68
2024-02-17T20:16:37.466Z,15.40
2024-02-17T20:19:04.493Z,14.80
2024-02-17T20:21:32.665Z,15.55
2024-02-17T20:23:59.567Z,14.95
2024-02-17T20:26:26.394Z,15.18
2024-02-17T20:28:53.519Z,15.50
2024-02-17T20:31:24.360Z,15.60
2024-02-17T20:33:53.729Z,16.50
2024-02-17T20:36:21.609Z,16.38
2024-02-17T20:38:50.316Z,15.95
2024-02-17T20:41:17.208Z,15.05
2024-02-17T20:43:44.096Z,16.52
2024-02-17T20:46:12.246Z,16.13
2024-02-17T20:48:39.236Z,16.23
2024-02-17T20:51:06.359Z,16.38
2024-02-17T20:53:34.441Z,15.32
2024-02-17T20:56:01.731Z,16.55
2024-02-17T20:58:28.737Z,16.17
2024-02-17T21:00:55.573Z,16.08
2024-02-17T21:03:22.465Z,16.05
2024-02-17T21:05:50.673Z,17.08
2024-02-17T21:08:17.694Z,16.30
2024-02-17T21:10:44.735Z,16.45
2024-02-17T21:13:11.814Z,16.65
2024-02-17T21:15:39.910Z,17.23
2024-02-17T21:18:06.901Z,17.45
2024-02-17T21:20:34.489Z,17.02
2024-02-17T21:23:01.742Z,17.58
2024-02-17T21:25:28.706Z,17.73
2024-02-17T21:27:56.227Z,18.33
2024-02-17T21:30:23.366Z,16.63
2024-02-17T21:32:50.368Z,19.83
2024-02-17T21:35:18.204Z,15.55
2024-02-17T21:37:45.852Z,16.27
2024-02-17T21:40:13.639Z,14.48
2024-02-17T21:42:40.702Z,14.15
2024-02-17T21:45:10.667Z,13.75
2024-02-17T21:47:39.942Z,13.60
2024-02-17T21:50:07.147Z,16.58
2024-02-17T21:52:34.108Z,13.52
2024-02-17T21:55:01.709Z,13.85
2024-02-17T21:57:29.649Z,14.77
2024-02-17T21:59:56.489Z,13.75
2024-02-17T22:02:23.314Z,13.35
2024-02-17T22:04:50.329Z,12.52
2024-02-17T22:07:17.312Z,13.52
2024-02-17T22:09:44.096Z,13.82
2024-02-17T22:12:10.994Z,14.30
2024-02-17T22:14:37.790Z,13.25
2024-02-17T22:17:04.954Z,12.88
2024-02-17T22:19:32.237Z,13.68
2024-02-17T22:21:59.217Z,12.45
2024-02-17T22:24:26.250Z,12.13
2024-02-17T22:26:53.123Z,12.68
2024-02-17T22:29:19.920Z,12.10
2024-02-17T22:31:46.759Z,13.32
2024-02-17T22:34:13.825Z,12.73
2024-02-17T22:36:40.740Z,12.45
2024-02-17T22:39:07.609Z,12.40
2024-02-17T22:41:34.448Z,11.23
2024-02-17T22:44:01.270Z,12.10
2024-02-17T22:46:28.091Z,10.98
2024-02-17T22:48:55.083Z,10.90
2024-02-17T22:51:22.129Z,11.48
2024-02-17T22:53:49.217Z,11.00
2024-02-17T22:56:17.369Z,11.57
2024-02-17T22:58:44.270Z,12.07
2024-02-17T23:01:11.201Z,11.98
2024-02-17T23:03:39.030Z,12.13
2024-02-17T23:06:06.365Z,11.63
2024-02-17T23:08:33.279Z,12.00
2024-02-17T23:11:00.347Z,11.88
2024-02-17T23:13:27.146Z,11.25
2024-02-17T23:15:53.988Z,11.10
2024-02-17T23:18:21.964Z,11.57
2024-02-17T23:20:48.909Z,11.43
2024-02-17T23:23:16.171Z,12.70
2024-02-17T23:25:43.760Z,11.80
2024-02-17T23:28:10.784Z,12.25
2024-02-17T23:30:37.721Z,10.95
2024-02-17T23:33:04.972Z,10.85
2024-02-17T23:35:31.844Z,10.52
2024-02-17T23:37:58.748Z,10.10
2024-02-17T23:40:26.154Z,10.48
2024-02-17T23:42:53.436Z,10.25
2024-02-17T23:45:20.369Z,9.90
2024-02-17T23:47:47.301Z,10.57
2024-02-17T23:50:14.221Z,10.45
2024-02-17T23:52:41.059Z,10.82
2024-02-17T23:55:11.529Z,10.07
2024-02-17T23:57:40.460Z,10.73
